KNQX

Key West NAS / Boca Chica Field Airport

Key West, Florida, USA
METAR KNQX 230453Z AUTO 07003KT 10SM FEW011 BKN041 OVC070 26/23 A3005 RMK AO2 RAB27E50 SLP174 P0000 T02610233 403170250
Observed Flight Rules
Oct-23 @ 04:53 UTC (25 minutes ago) Visual Flight Rules
Wind Visibility Clouds
70° at 3 knots 10 miles
  • Few at 1,100' AGL
  • Broken at 4,100' AGL
  • Overcast at 7,000' AGL
Temperatures Readings Precipitation
Current 26°C / 79°F
Dewpoint 23°C / 73°F
Humidity 84%
Altimeter 30.05" Hg
Pressure 1017.4 hPa
Elevation 2
Current Rain 0.005
METAR KNQX 230453Z AUTO 07003KT 10SM FEW011 BKN041 OVC070 26/23 A3005 RMK AO2 RAB27E50 SLP174 P0000 T02610233 403170250
Observed Flight Rules
Oct-23 @ 04:53 UTC
(25 minutes ago)
VFR
Wind Visibility
70° at 3 knots 10 miles
Clouds
  • Few at 1,100' AGL
  • Broken at 4,100' AGL
  • Overcast at 7,000' AGL
Temperature Dewpoint
26°C / 79°F 23°C / 73°F
Humidity Altimeter Pressure
84% 30.05" Hg 1017.4 hPa
Current Rain
0.005